createdAt,value
2023-03-12T00:00:16.632Z,1.57
2023-03-12T00:02:44.561Z,1.33
2023-03-12T00:05:12.671Z,1.73
2023-03-12T00:07:41.951Z,1.20
2023-03-12T00:10:11.158Z,1.53
2023-03-12T00:12:39.051Z,1.40
2023-03-12T00:15:08.139Z,1.67
2023-03-12T00:17:36.099Z,1.67
2023-03-12T00:20:05.135Z,1.80
2023-03-12T00:22:33.054Z,1.60
2023-03-12T00:25:02.306Z,1.67
2023-03-12T00:27:30.286Z,1.20
2023-03-12T00:29:58.174Z,1.67
2023-03-12T00:32:26.167Z,1.50
2023-03-12T00:34:55.157Z,1.67
2023-03-12T00:37:23.656Z,1.60
2023-03-12T00:39:51.820Z,1.70
2023-03-12T00:42:21.363Z,1.73
2023-03-12T00:44:49.263Z,1.70
2023-03-12T00:47:17.160Z,1.70
2023-03-12T00:49:45.073Z,2.10
2023-03-12T00:52:13.117Z,2.00
2023-03-12T00:54:41.249Z,1.70
2023-03-12T00:57:09.182Z,1.60
2023-03-12T00:59:40.482Z,2.10
2023-03-12T01:02:08.777Z,2.03
2023-03-12T01:04:36.883Z,1.60
2023-03-12T01:07:04.959Z,1.33
2023-03-12T01:09:32.832Z,2.10
2023-03-12T01:12:00.788Z,1.80
2023-03-12T01:14:28.694Z,2.20
2023-03-12T01:16:57.899Z,2.00
2023-03-12T01:19:25.864Z,2.27
2023-03-12T01:21:53.735Z,2.27
2023-03-12T01:24:21.623Z,2.00
2023-03-12T01:26:49.460Z,2.20
2023-03-12T01:29:17.411Z,1.70
2023-03-12T01:31:45.357Z,2.23
2023-03-12T01:34:14.692Z,2.17
2023-03-12T01:36:44.449Z,2.03
2023-03-12T01:39:12.400Z,1.90
2023-03-12T01:41:40.402Z,1.90
2023-03-12T01:44:09.227Z,1.73
2023-03-12T01:46:39.359Z,1.57
2023-03-12T01:49:11.024Z,1.70
2023-03-12T01:51:43.607Z,1.97
2023-03-12T01:54:16.883Z,2.03
2023-03-12T01:56:45.343Z,2.10
2023-03-12T01:59:17.938Z,1.87
2023-03-12T02:01:46.335Z,1.90
2023-03-12T02:04:15.757Z,1.80
2023-03-12T02:06:50.213Z,2.33
2023-03-12T02:09:20.214Z,2.60
2023-03-12T02:11:48.257Z,2.10
2023-03-12T02:14:16.614Z,1.87
2023-03-12T02:16:44.957Z,1.70
2023-03-12T02:19:19.767Z,1.60
2023-03-12T02:21:49.041Z,3.13
2023-03-12T02:24:23.171Z,2.00
2023-03-12T02:26:52.802Z,1.93
2023-03-12T02:29:20.959Z,2.00
2023-03-12T02:31:54.394Z,2.17
2023-03-12T02:34:22.805Z,1.80
2023-03-12T02:36:51.051Z,1.80
2023-03-12T02:39:19.634Z,2.00
2023-03-12T02:41:53.531Z,1.90
2023-03-12T02:44:25.029Z,1.80
2023-03-12T02:46:54.865Z,1.93
2023-03-12T02:49:25.547Z,2.47
2023-03-12T02:51:53.824Z,2.20
2023-03-12T02:54:22.725Z,1.70
2023-03-12T02:56:51.887Z,2.20
2023-03-12T02:59:21.815Z,2.70
2023-03-12T03:01:55.682Z,2.67
2023-03-12T03:04:24.416Z,2.03
2023-03-12T03:06:52.634Z,2.40
2023-03-12T03:09:22.184Z,2.37
2023-03-12T03:11:50.708Z,1.90
2023-03-12T03:14:19.351Z,2.33
2023-03-12T03:16:47.588Z,2.07
2023-03-12T03:19:16.845Z,1.83
2023-03-12T03:21:44.878Z,2.67
2023-03-12T03:24:12.799Z,2.83
2023-03-12T03:26:40.753Z,2.03
2023-03-12T03:29:08.645Z,1.50
2023-03-12T03:31:36.605Z,2.30
2023-03-12T03:34:04.591Z,2.60
2023-03-12T03:36:33.848Z,2.33
2023-03-12T03:39:01.732Z,2.40
2023-03-12T03:41:29.690Z,2.20
2023-03-12T03:43:59.242Z,2.00
2023-03-12T03:46:27.637Z,2.00
2023-03-12T03:48:55.524Z,2.13
2023-03-12T03:51:23.471Z,1.70
2023-03-12T03:53:52.712Z,2.10
2023-03-12T03:56:21.054Z,2.33
2023-03-12T03:58:49.012Z,1.47
2023-03-12T04:01:17.163Z,1.97
2023-03-12T04:03:45.157Z,2.00
2023-03-12T04:06:13.608Z,1.83
2023-03-12T04:08:41.760Z,1.80
2023-03-12T04:11:14.782Z,1.97
2023-03-12T04:13:43.003Z,2.10
2023-03-12T04:16:11.300Z,2.03
2023-03-12T04:18:40.163Z,1.80
2023-03-12T04:21:09.755Z,2.33
2023-03-12T04:23:38.531Z,2.20
2023-03-12T04:26:07.565Z,1.97
2023-03-12T04:28:38.831Z,1.70
2023-03-12T04:31:09.136Z,1.47
2023-03-12T04:33:38.794Z,2.10
2023-03-12T04:36:07.588Z,1.60
2023-03-12T04:38:35.532Z,1.70
2023-03-12T04:41:05.783Z,1.80
2023-03-12T04:43:34.066Z,2.40
2023-03-12T04:46:04.416Z,1.90
2023-03-12T04:48:33.103Z,2.10
2023-03-12T04:51:00.970Z,1.73
2023-03-12T04:53:29.095Z,2.00
2023-03-12T04:55:56.973Z,2.43
2023-03-12T04:58:24.952Z,1.87
2023-03-12T05:00:52.969Z,2.03
2023-03-12T05:03:22.197Z,1.93
2023-03-12T05:05:50.036Z,2.30
2023-03-12T05:08:17.907Z,2.30
2023-03-12T05:10:46.243Z,2.27
2023-03-12T05:13:16.018Z,2.60
2023-03-12T05:15:44.084Z,2.30
2023-03-12T05:18:12.114Z,2.50
2023-03-12T05:20:41.481Z,3.10
2023-03-12T05:23:09.525Z,3.30
2023-03-12T05:25:40.381Z,3.40
2023-03-12T05:28:08.377Z,3.10
2023-03-12T05:30:36.311Z,2.43
2023-03-12T05:33:04.349Z,2.50
2023-03-12T05:35:32.428Z,2.80
2023-03-12T05:38:01.697Z,2.20
2023-03-12T05:40:29.621Z,2.70
2023-03-12T05:42:57.612Z,2.70
2023-03-12T05:45:25.456Z,2.90
2023-03-12T05:47:53.328Z,2.20
2023-03-12T05:50:21.458Z,2.10
2023-03-12T05:52:49.310Z,2.30
2023-03-12T05:55:18.805Z,2.03
2023-03-12T05:57:46.690Z,2.67
2023-03-12T06:00:15.874Z,2.20
2023-03-12T06:02:43.941Z,2.23
2023-03-12T06:05:12.164Z,2.53
2023-03-12T06:07:40.251Z,3.60
2023-03-12T06:10:09.334Z,2.70
2023-03-12T06:12:38.552Z,3.30
2023-03-12T06:15:07.192Z,2.73
2023-03-12T06:17:35.096Z,3.20
2023-03-12T06:20:03.008Z,3.20
2023-03-12T06:22:31.251Z,3.83
2023-03-12T06:24:59.249Z,3.30
2023-03-12T06:27:27.310Z,4.20
2023-03-12T06:29:56.540Z,3.93
2023-03-12T06:32:24.443Z,3.87
2023-03-12T06:34:52.321Z,5.43
2023-03-12T06:37:20.203Z,4.20
2023-03-12T06:39:48.081Z,3.80
2023-03-12T06:42:17.689Z,4.00
2023-03-12T06:44:45.586Z,3.53
2023-03-12T06:47:17.437Z,4.13
2023-03-12T06:49:45.551Z,3.53
2023-03-12T06:52:13.397Z,3.40
2023-03-12T06:54:41.364Z,3.87
2023-03-12T06:57:09.286Z,4.43
2023-03-12T06:59:37.137Z,4.03
2023-03-12T07:02:05.212Z,3.90
2023-03-12T07:04:34.437Z,4.23
2023-03-12T07:07:02.260Z,4.10
2023-03-12T07:09:30.183Z,4.23
2023-03-12T07:11:58.045Z,5.03
2023-03-12T07:14:26.675Z,4.53
2023-03-12T07:16:54.516Z,4.50
2023-03-12T07:19:22.438Z,6.07
2023-03-12T07:21:51.673Z,4.50
2023-03-12T07:24:19.690Z,5.43
2023-03-12T07:26:47.573Z,7.80
2023-03-12T07:29:15.437Z,6.70
2023-03-12T07:31:43.353Z,7.50
2023-03-12T07:34:11.478Z,8.43
2023-03-12T07:36:39.499Z,8.30
2023-03-12T07:39:09.198Z,7.10
2023-03-12T07:41:39.014Z,6.77
2023-03-12T07:44:07.195Z,6.77
2023-03-12T07:46:35.161Z,7.30
2023-03-12T07:49:03.018Z,6.57
2023-03-12T07:51:30.877Z,6.90
2023-03-12T07:53:58.785Z,7.07
2023-03-12T07:56:28.093Z,6.93
2023-03-12T07:58:56.229Z,6.13
2023-03-12T08:01:25.475Z,6.13
2023-03-12T08:03:53.436Z,6.33
2023-03-12T08:06:21.840Z,5.90
2023-03-12T08:08:49.745Z,5.30
2023-03-12T08:11:18.156Z,6.97
2023-03-12T08:13:47.350Z,6.47
2023-03-12T08:16:15.735Z,6.17
2023-03-12T08:18:44.451Z,5.53
2023-03-12T08:21:16.371Z,6.33
2023-03-12T08:23:44.432Z,6.03
2023-03-12T08:26:12.542Z,7.10
2023-03-12T08:28:40.455Z,6.27
2023-03-12T08:31:10.484Z,5.57
2023-03-12T08:33:41.222Z,5.23
2023-03-12T08:36:09.840Z,5.30
2023-03-12T08:38:38.005Z,4.83
2023-03-12T08:41:06.024Z,4.50
2023-03-12T08:43:33.907Z,4.80
2023-03-12T08:46:03.985Z,4.00
2023-03-12T08:48:34.284Z,4.90
2023-03-12T08:51:04.304Z,6.37
2023-03-12T08:53:33.605Z,6.17
2023-03-12T08:56:01.944Z,6.50
2023-03-12T08:58:30.170Z,7.30
2023-03-12T09:00:59.092Z,7.30
2023-03-12T09:03:27.706Z,8.00
2023-03-12T09:06:06.545Z,6.30
2023-03-12T09:08:34.479Z,5.20
2023-03-12T09:11:03.179Z,4.77
2023-03-12T09:13:54.290Z,4.67
2023-03-12T09:16:19.241Z,4.00
2023-03-12T09:18:47.140Z,4.17
2023-03-12T09:21:16.473Z,4.10
2023-03-12T09:23:44.324Z,4.30
2023-03-12T09:26:12.715Z,4.93
2023-03-12T09:28:41.037Z,4.40
2023-03-12T09:31:08.958Z,3.90
2023-03-12T09:33:36.990Z,4.97
2023-03-12T09:36:05.625Z,4.40
2023-03-12T09:38:37.991Z,4.73
2023-03-12T09:41:07.077Z,4.60
2023-03-12T09:43:39.555Z,4.40
2023-03-12T09:46:15.153Z,5.43
2023-03-12T09:48:44.727Z,5.17
2023-03-12T09:51:21.174Z,4.30
2023-03-12T09:53:54.439Z,4.20
2023-03-12T09:56:24.028Z,4.87
2023-03-12T09:58:54.630Z,3.90
2023-03-12T10:01:38.432Z,5.10
2023-03-12T10:04:19.436Z,4.50
2023-03-12T10:06:52.008Z,5.00
2023-03-12T10:09:40.704Z,4.80
2023-03-12T10:12:18.140Z,5.60
2023-03-12T10:14:57.689Z,4.00
2023-03-12T10:17:45.755Z,4.77
2023-03-12T10:20:45.298Z,5.00
2023-03-12T10:23:17.791Z,4.87
2023-03-12T10:25:51.738Z,5.03
2023-03-12T10:28:22.972Z,5.00
2023-03-12T10:30:55.495Z,6.03
2023-03-12T10:33:27.905Z,6.17
2023-03-12T10:35:56.533Z,5.07
2023-03-12T10:38:30.368Z,5.43
2023-03-12T10:40:59.579Z,5.20
2023-03-12T10:43:28.127Z,6.17
2023-03-12T10:46:05.692Z,5.90
2023-03-12T10:48:33.665Z,6.10
2023-03-12T10:51:04.469Z,7.80
2023-03-12T10:53:34.421Z,7.50
2023-03-12T10:56:07.484Z,6.90
2023-03-12T10:58:38.291Z,7.83
2023-03-12T11:01:08.204Z,8.20
2023-03-12T11:03:36.119Z,6.90
2023-03-12T11:06:07.772Z,6.90
2023-03-12T11:08:37.447Z,7.00
2023-03-12T11:11:07.022Z,7.83
2023-03-12T11:13:36.786Z,6.20
2023-03-12T11:16:26.851Z,7.57
2023-03-12T11:18:59.964Z,6.67
2023-03-12T11:21:28.368Z,6.97
2023-03-12T11:24:08.067Z,7.87
2023-03-12T11:26:44.464Z,7.57
2023-03-12T11:29:19.429Z,8.00
2023-03-12T11:31:57.416Z,7.13
2023-03-12T11:34:29.372Z,9.97
2023-03-12T11:37:07.329Z,9.23
2023-03-12T11:39:41.941Z,8.73
2023-03-12T11:42:23.760Z,9.07
2023-03-12T11:45:05.700Z,9.03
2023-03-12T11:47:49.060Z,9.17
2023-03-12T11:50:26.878Z,10.43
2023-03-12T11:53:07.425Z,9.03
2023-03-12T11:55:50.984Z,9.43
2023-03-12T11:58:34.521Z,9.30
2023-03-12T12:01:09.274Z,8.90
2023-03-12T12:04:10.903Z,8.97
2023-03-12T12:06:51.289Z,9.37
2023-03-12T12:09:29.764Z,9.70
2023-03-12T12:12:09.341Z,8.10
2023-03-12T12:14:49.715Z,8.10
2023-03-12T12:17:26.517Z,8.60
2023-03-12T12:20:09.209Z,8.47
2023-03-12T12:22:44.327Z,9.20
2023-03-12T12:25:26.925Z,8.10
2023-03-12T12:28:12.634Z,7.97
2023-03-12T12:31:01.077Z,8.77
2023-03-12T12:33:44.896Z,8.30
2023-03-12T12:36:14.685Z,8.17
2023-03-12T12:38:47.467Z,8.30
2023-03-12T12:41:18.696Z,7.70
2023-03-12T12:43:50.244Z,10.33
2023-03-12T12:46:23.719Z,11.13
2023-03-12T12:48:54.429Z,9.23
2023-03-12T12:51:26.354Z,11.03
2023-03-12T12:54:02.098Z,10.60
2023-03-12T12:56:34.697Z,10.80
2023-03-12T12:59:21.439Z,9.80
2023-03-12T13:01:53.527Z,11.20
2023-03-12T13:04:26.889Z,9.67
2023-03-12T13:07:01.059Z,10.27
2023-03-12T13:09:41.768Z,9.10
2023-03-12T13:12:15.911Z,9.57
2023-03-12T13:14:45.594Z,9.17
2023-03-12T13:17:34.090Z,8.53
2023-03-12T13:20:14.388Z,8.20
2023-03-12T13:23:13.389Z,7.60
2023-03-12T13:25:52.299Z,10.37
2023-03-12T13:28:32.781Z,9.17
2023-03-12T13:31:01.188Z,7.27
2023-03-12T13:33:42.360Z,8.60
2023-03-12T13:36:26.684Z,7.53
2023-03-12T13:38:59.552Z,9.30
2023-03-12T13:41:38.712Z,7.87
2023-03-12T13:44:33.079Z,7.80
2023-03-12T13:47:02.796Z,6.80
2023-03-12T13:49:37.683Z,6.07
2023-03-12T13:52:22.147Z,5.40
2023-03-12T13:54:58.742Z,7.30
2023-03-12T13:57:36.789Z,6.20
2023-03-12T14:00:13.101Z,5.60
2023-03-12T14:02:49.294Z,5.60
2023-03-12T14:05:21.409Z,5.90
2023-03-12T14:08:23.027Z,6.10
2023-03-12T14:11:04.311Z,6.70
2023-03-12T14:13:55.285Z,6.70
2023-03-12T14:16:30.561Z,6.77
2023-03-12T14:18:58.778Z,7.67
2023-03-12T14:21:35.318Z,7.13
2023-03-12T14:24:04.944Z,6.70
2023-03-12T14:26:34.744Z,5.37
2023-03-12T14:29:08.385Z,8.20
2023-03-12T14:31:37.596Z,7.10
2023-03-12T14:34:09.377Z,7.40
2023-03-12T14:36:42.553Z,9.20
2023-03-12T14:39:18.911Z,7.87
2023-03-12T14:41:52.540Z,8.80
2023-03-12T14:44:23.788Z,8.60
2023-03-12T14:46:59.912Z,8.63
2023-03-12T14:49:28.803Z,6.90
2023-03-12T14:51:58.828Z,7.47
2023-03-12T14:54:29.578Z,7.03
2023-03-12T14:56:57.540Z,7.40
2023-03-12T14:59:29.547Z,8.90
2023-03-12T15:02:02.141Z,8.57
2023-03-12T15:04:31.372Z,8.13
2023-03-12T15:07:04.523Z,8.80
2023-03-12T15:09:36.020Z,9.20
2023-03-12T15:12:06.927Z,9.57
2023-03-12T15:14:39.450Z,10.00
2023-03-12T15:17:08.666Z,9.90
2023-03-12T15:19:40.173Z,10.00
2023-03-12T15:22:13.569Z,10.63
2023-03-12T15:24:41.705Z,9.00
2023-03-12T15:27:31.775Z,9.47
2023-03-12T15:30:01.974Z,8.83
2023-03-12T15:32:31.760Z,7.60
2023-03-12T15:35:00.105Z,8.50
2023-03-12T15:37:35.304Z,9.33
2023-03-12T15:40:06.488Z,9.20
2023-03-12T15:42:41.189Z,10.50
2023-03-12T15:45:19.482Z,9.43
2023-03-12T15:47:48.187Z,9.63
2023-03-12T15:50:22.577Z,10.07
2023-03-12T15:53:03.187Z,11.90
2023-03-12T15:55:32.691Z,10.07
2023-03-12T15:58:01.019Z,9.60
2023-03-12T16:00:31.521Z,9.03
2023-03-12T16:03:01.027Z,8.57
2023-03-12T16:05:33.157Z,7.70
2023-03-12T16:08:11.354Z,8.13
2023-03-12T16:10:40.567Z,7.63
2023-03-12T16:13:10.474Z,7.43
2023-03-12T16:15:39.298Z,7.20
2023-03-12T16:18:13.678Z,8.07
2023-03-12T16:20:41.703Z,7.73
2023-03-12T16:23:11.217Z,6.43
2023-03-12T16:25:39.643Z,7.43
2023-03-12T16:28:08.275Z,8.50
2023-03-12T16:30:37.973Z,8.43
2023-03-12T16:33:09.078Z,6.13
2023-03-12T16:35:37.429Z,6.20
2023-03-12T16:38:05.514Z,6.73
2023-03-12T16:40:38.089Z,7.10
2023-03-12T16:43:08.006Z,6.10
2023-03-12T16:45:37.851Z,6.53
2023-03-12T16:48:07.496Z,6.10
2023-03-12T16:50:35.438Z,6.80
2023-03-12T16:53:04.694Z,6.37
2023-03-12T16:55:46.265Z,6.77
2023-03-12T16:58:16.715Z,6.00
2023-03-12T17:00:45.293Z,7.10
2023-03-12T17:03:35.459Z,5.70
2023-03-12T17:06:04.254Z,7.63
2023-03-12T17:08:32.175Z,7.60
2023-03-12T17:11:01.517Z,6.40
2023-03-12T17:13:30.375Z,8.63
2023-03-12T17:15:58.784Z,6.30
2023-03-12T17:18:26.753Z,8.10
2023-03-12T17:20:55.676Z,6.83
2023-03-12T17:23:24.593Z,6.87
2023-03-12T17:25:52.492Z,7.43
2023-03-12T17:28:21.676Z,5.57
2023-03-12T17:30:49.561Z,6.47
2023-03-12T17:33:19.609Z,5.50
2023-03-12T17:35:47.657Z,6.90
2023-03-12T17:38:15.643Z,7.87
2023-03-12T17:40:45.024Z,7.40
2023-03-12T17:43:12.939Z,6.50
2023-03-12T17:45:43.056Z,6.70
2023-03-12T17:48:11.283Z,7.10
2023-03-12T17:50:39.150Z,5.97
2023-03-12T17:53:07.028Z,7.53
2023-03-12T17:55:36.008Z,7.70
2023-03-12T17:58:06.050Z,8.37
2023-03-12T18:00:34.724Z,6.93
2023-03-12T18:03:04.306Z,8.20
2023-03-12T18:05:32.269Z,7.87
2023-03-12T18:08:00.217Z,7.43
2023-03-12T18:10:28.175Z,7.43
2023-03-12T18:12:56.023Z,6.40
2023-03-12T18:15:23.890Z,7.67
2023-03-12T18:17:53.189Z,7.23
2023-03-12T18:20:35.788Z,6.70
2023-03-12T18:23:05.443Z,7.23
2023-03-12T18:25:33.420Z,6.53
2023-03-12T18:28:01.282Z,7.10
2023-03-12T18:30:29.273Z,6.83
2023-03-12T18:32:57.287Z,6.60
2023-03-12T18:35:28.860Z,6.50
2023-03-12T18:37:56.952Z,5.80
2023-03-12T18:40:25.007Z,6.43
2023-03-12T18:42:52.905Z,6.23
2023-03-12T18:45:20.782Z,6.30
2023-03-12T18:47:50.841Z,5.03
2023-03-12T18:50:19.060Z,5.40
2023-03-12T18:52:48.383Z,6.17
2023-03-12T18:55:16.319Z,5.50
2023-03-12T18:57:44.628Z,6.60
2023-03-12T19:00:15.037Z,5.30
2023-03-12T19:02:45.416Z,6.40
2023-03-12T19:05:14.434Z,6.10
2023-03-12T19:07:42.742Z,6.10
2023-03-12T19:10:13.548Z,5.83
2023-03-12T19:12:52.186Z,5.50
2023-03-12T19:15:22.317Z,5.67
2023-03-12T19:17:50.496Z,4.70
2023-03-12T19:20:19.058Z,5.43
2023-03-12T19:22:46.996Z,5.70
2023-03-12T19:25:16.248Z,5.37
2023-03-12T19:27:44.202Z,5.40
2023-03-12T19:30:13.755Z,6.07
2023-03-12T19:32:44.082Z,5.60
2023-03-12T19:35:14.802Z,6.07
2023-03-12T19:37:43.134Z,5.77
2023-03-12T19:40:13.276Z,7.47
2023-03-12T19:42:42.633Z,7.30
2023-03-12T19:45:11.669Z,6.60
2023-03-12T19:47:39.575Z,6.83
2023-03-12T19:50:08.489Z,6.50
2023-03-12T19:52:36.391Z,6.37
2023-03-12T19:55:05.684Z,5.60
2023-03-12T19:57:34.323Z,5.90
2023-03-12T20:00:07.259Z,7.43
2023-03-12T20:02:35.278Z,6.93
2023-03-12T20:05:03.502Z,8.63
2023-03-12T20:07:31.502Z,6.43
2023-03-12T20:09:59.421Z,7.80
2023-03-12T20:12:27.288Z,6.67
2023-03-12T20:14:55.226Z,6.57
2023-03-12T20:17:24.428Z,5.80
2023-03-12T20:19:52.300Z,6.10
2023-03-12T20:22:20.192Z,6.03
2023-03-12T20:24:48.045Z,6.20
2023-03-12T20:27:15.878Z,5.20
2023-03-12T20:29:46.099Z,6.27
2023-03-12T20:32:14.142Z,7.10
2023-03-12T20:34:43.442Z,5.73
2023-03-12T20:37:11.439Z,6.63
2023-03-12T20:39:39.298Z,6.20
2023-03-12T20:42:07.258Z,8.13
2023-03-12T20:44:35.194Z,6.50
2023-03-12T20:47:03.055Z,7.10
2023-03-12T20:49:30.893Z,8.07
2023-03-12T20:52:00.138Z,7.50
2023-03-12T20:54:28.425Z,6.00
2023-03-12T20:56:56.359Z,6.47
2023-03-12T20:59:24.178Z,6.37
2023-03-12T21:01:52.000Z,6.93
2023-03-12T21:04:20.021Z,6.80
2023-03-12T21:06:51.634Z,7.10
2023-03-12T21:09:23.449Z,6.27
2023-03-12T21:11:51.520Z,6.20
2023-03-12T21:14:19.498Z,6.80
2023-03-12T21:16:47.450Z,7.40
2023-03-12T21:19:15.380Z,6.40
2023-03-12T21:21:43.276Z,6.53
2023-03-12T21:24:11.152Z,6.13
2023-03-12T21:26:40.321Z,7.50
2023-03-12T21:29:08.157Z,8.13
2023-03-12T21:31:36.522Z,8.00
2023-03-12T21:34:04.419Z,7.93
2023-03-12T21:36:33.049Z,8.30
2023-03-12T21:39:02.045Z,6.83
2023-03-12T21:41:29.939Z,6.53
2023-03-12T21:44:02.230Z,6.80
2023-03-12T21:46:30.662Z,6.70
2023-03-12T21:48:59.575Z,8.03
2023-03-12T21:51:27.827Z,7.77
2023-03-12T21:53:55.729Z,7.20
2023-03-12T21:56:26.366Z,6.47
2023-03-12T21:58:54.216Z,6.40
2023-03-12T22:01:23.460Z,6.20
2023-03-12T22:03:51.447Z,8.30
2023-03-12T22:06:19.385Z,6.80
2023-03-12T22:08:48.453Z,7.90
2023-03-12T22:11:17.201Z,6.07
2023-03-12T22:13:45.510Z,7.23
2023-03-12T22:16:14.805Z,6.70
2023-03-12T22:18:45.668Z,7.30
2023-03-12T22:21:16.113Z,6.40
2023-03-12T22:23:44.077Z,5.00
2023-03-12T22:26:11.918Z,5.47
2023-03-12T22:28:39.806Z,5.97
2023-03-12T22:31:09.522Z,6.00
2023-03-12T22:33:37.948Z,4.47
2023-03-12T22:36:09.669Z,5.80
2023-03-12T22:38:38.744Z,7.67
2023-03-12T22:41:14.232Z,7.00
2023-03-12T22:43:42.083Z,6.27
2023-03-12T22:46:10.027Z,6.43
2023-03-12T22:48:37.930Z,5.90
2023-03-12T22:51:07.633Z,5.30
2023-03-12T22:53:35.462Z,5.20
2023-03-12T22:56:05.785Z,5.33
2023-03-12T22:58:34.449Z,4.60
2023-03-12T23:01:03.005Z,4.50
2023-03-12T23:03:33.442Z,3.90
2023-03-12T23:06:01.794Z,3.90
2023-03-12T23:08:31.679Z,5.20
2023-03-12T23:11:00.905Z,4.60
2023-03-12T23:13:30.624Z,4.30
2023-03-12T23:16:02.408Z,4.93
2023-03-12T23:18:30.322Z,5.47
2023-03-12T23:21:02.950Z,5.57
2023-03-12T23:23:33.934Z,6.30
2023-03-12T23:26:02.953Z,5.60
2023-03-12T23:28:31.272Z,5.60
2023-03-12T23:31:00.823Z,7.63
2023-03-12T23:33:30.794Z,8.63
2023-03-12T23:36:00.361Z,8.30
2023-03-12T23:38:29.981Z,8.10
2023-03-12T23:41:01.960Z,6.50
2023-03-12T23:43:30.175Z,6.10
2023-03-12T23:45:58.872Z,4.83
2023-03-12T23:48:27.439Z,5.40
2023-03-12T23:50:55.543Z,5.90
2023-03-12T23:53:23.412Z,4.40
2023-03-12T23:55:58.125Z,4.40
2023-03-12T23:58:27.404Z,5.10
